Nearby METAR Reports

 

KTEB - Teterboro, New Jersey, USA
Distance from station: ENE 2mi, 4km
Updated: 01/23/2021 1:51am
Overcast
Overcast
 Wind from NW
Wind: NW 16 mph , 26 km/h, Gust: 23 mph , 37 km/h
Temperature: 34°F , 1°C
Wind Chill: 24°F , -4°C
Dew Point: 12°F , -11°C
Humidity: 41%
Barometer: 29.92 inHg , 1013.2 hPa
Clouds: Overcast
Visibility: 10 miles , 16 km
Cloud details: Overcast 6000 ft
2021/01/23 06:51 KTEB 230651Z 32014G20KT 10SM OVC060 01/M11 A2992 RMK AO2 SLP132 T00061106
KNYC - Nyc/Central Park, New York, USA
Distance from station: SE 8mi, 13km
Updated: 01/23/2021 1:51am
Overcast
Overcast
 Wind from WNW
Wind: WNW 8 mph , 13 km/h, Gust: 23 mph , 37 km/h
Temperature: 34°F , 1°C
Wind Chill: 27°F , -3°C
Dew Point: 12°F , -11°C
Humidity: 41%
Barometer: 29.93 inHg , 1013.5 hPa
Clouds: Overcast
Visibility: 10 miles , 16 km
Cloud details: Overcast 6000 ft
2021/01/23 06:51 KNYC 230651Z AUTO 30007G20KT 250V330 10SM OVC060 01/M11 A2993 RMK AO2 SLP129 T00111111
 
KCDW - Caldwell, New Jersey, USA
Distance from station: WNW 10mi, 17km
Updated: 01/23/2021 1:53am
Overcast
Overcast
 Wind from NW
Wind: NW 10 mph , 17 km/h, Gust: 23 mph , 37 km/h
Temperature: 34°F , 1°C
Wind Chill: 26°F , -3°C
Dew Point: 9°F , -13°C
Humidity: 35%
Barometer: 29.94 inHg , 1013.9 hPa
Clouds: Overcast
Visibility: 10 miles , 16 km
Cloud details: Overcast 6000 ft
2021/01/23 06:53 KCDW 230653Z AUTO 32009G20KT 10SM OVC060 01/M13 A2994 RMK AO2 SLP145 T00061128
KLGA - Nyc/La Guardia, New York, USA
Distance from station: ESE 12mi, 19km
Updated: 01/23/2021 1:51am
Overcast
Overcast
 Wind from NW
Wind: NW 14 mph , 22 km/h
Temperature: 36°F , 2°C
Wind Chill: 27°F , -3°C
Dew Point: 16°F , -9°C
Humidity: 44%
Barometer: 29.91 inHg , 1012.9 hPa
Clouds: Overcast
Visibility: 10 miles , 16 km
Cloud details: Overcast 6500 ft
2021/01/23 06:51 KLGA 230651Z 32012KT 10SM OVC065 02/M09 A2991 RMK AO2 SLP129 T00221089
 
KEWR - Newark, New Jersey, USA
Distance from station: SSW 12mi, 20km
Updated: 01/23/2021 1:51am
Mostly cloudy
Mostly cloudy
 Wind from NW
Wind: NW 17 mph , 28 km/h, Gust: 25 mph , 41 km/h
Temperature: 34°F , 1°C
Wind Chill: 23°F , -5°C
Dew Point: 12°F , -11°C
Humidity: 41%
Barometer: 29.94 inHg , 1013.9 hPa
Clouds: Mostly cloudy
Visibility: 10 miles , 16 km
Cloud details: Few Clouds 4800 ft
Mostly cloudy 6000 ft
2021/01/23 06:51 KEWR 230651Z 32015G22KT 10SM FEW048 BKN060 01/M11 A2994 RMK AO2 SLP137 T00111111
KMMU - Morristown Muni, New Jersey, USA
Distance from station: WSW 18mi, 29km
Updated: 01/23/2021 1:55am
Overcast
Overcast
 Wind from W
Wind: W 8 mph , 13 km/h, Gust: 20 mph , 31 km/h
Temperature: 32°F , 0°C
Wind Chill: 25°F , -4°C
Dew Point: 10°F , -12°C
Humidity: 40%
Barometer: 29.94 inHg , 1013.9 hPa
Clouds: Overcast
Visibility: 10 miles , 16 km
Cloud details: Overcast 6000 ft
2021/01/23 06:55 KMMU 230655Z AUTO 28007G17KT 10SM OVC060 M00/M12 A2994 RMK AO2
 
KJFK - Nyc/Jfk Arpt, New York, USA
Distance from station: SE 23mi, 36km
Updated: 01/23/2021 1:51am
Overcast
Overcast
 Wind from NW
Wind: NW 17 mph , 28 km/h, Gust: 23 mph , 37 km/h
Temperature: 36°F , 2°C
Wind Chill: 26°F , -3°C
Dew Point: 14°F , -10°C
Humidity: 41%
Barometer: 29.92 inHg , 1013.2 hPa
Clouds: Overcast
Visibility: 10 miles , 16 km
Cloud details: Few Clouds 5000 ft
Overcast 6000 ft
2021/01/23 06:51 KJFK 230651Z 31015G20KT 10SM FEW050 OVC060 02/M10 A2992 RMK AO2 SLP132 T00171100
KHPN - White Plains, New York, USA
Distance from station: NE 25mi, 40km
Updated: 01/23/2021 1:56am
Overcast
Overcast
 Wind from NW
Wind: NW 18 mph , 30 km/h, Gust: 29 mph , 46 km/h
Temperature: 30°F , -1°C
Wind Chill: 18°F , -8°C
Dew Point: 10°F , -12°C
Humidity: 43%
Barometer: 29.89 inHg , 1012.2 hPa
Clouds: Overcast
Visibility: 10 miles , 16 km
Cloud details: Overcast 6000 ft
2021/01/23 06:56 KHPN 230656Z 31016G25KT 10SM OVC060 M01/M12 A2989 RMK AO2 SLP127 T10061122
 
KSMQ - Somerville, New Jersey, USA
Distance from station: WSW 34mi, 55km
Updated: 01/23/2021 1:53am
Overcast
Overcast
 Wind from NW
Wind: NW 12 mph , 19 km/h
Temperature: 34°F , 1°C
Wind Chill: 25°F , -4°C
Dew Point: 12°F , -11°C
Humidity: 41%
Barometer: 29.94 inHg , 1013.9 hPa
Clouds: Overcast
Visibility: 10 miles , 16 km
Cloud details: Few Clouds 4900 ft
Overcast 6000 ft
2021/01/23 06:53 KSMQ 230653Z AUTO 32010KT 10SM FEW049 OVC060 01/M11 A2994 RMK AO2 SLP139 T00061106 $
K12N - Andover, New Jersey, USA
Distance from station: WNW 36mi, 57km
Updated: 01/23/2021 1:54am

 Wind from varies
Wind: varies 7 mph , 11 km/h
Temperature: 28°F , -2°C
Wind Chill: 21°F , -6°C
Dew Point: 9°F , -13°C
Humidity: 43%
Barometer: 29.94 inHg , 1013.9 hPa
2021/01/23 06:54 K12N 230654Z AUTO VRB06KT M02/M13 A2994 RMK AO1 SLP147 T10171133
 
KFRG - Farmingdale, New York, USA
Distance from station: ESE 36mi, 58km
Updated: 01/23/2021 1:53am
Overcast
Overcast
 Wind from NNW
Wind: NNW 13 mph , 20 km/h
Temperature: 34°F , 1°C
Wind Chill: 25°F , -4°C
Dew Point: 16°F , -9°C
Humidity: 48%
Barometer: 29.90 inHg , 1012.5 hPa
Clouds: Overcast
Visibility: 10 miles , 16 km
Cloud details: Overcast 6500 ft
2021/01/23 06:53 KFRG 230653Z AUTO 33011KT 10SM OVC065 01/M09 A2990 RMK AO2 SLP126 T00111094
KFWN - Sussex, New Jersey, USA
Distance from station: NW 37mi, 60km
Updated: 01/23/2021 1:53am
Overcast
Overcast
 Wind from varies
Wind: varies 6 mph , 9 km/h
Temperature: 28°F , -2°C
Wind Chill: 21°F , -6°C
Dew Point: 9°F , -13°C
Humidity: 43%
Barometer: 29.93 inHg , 1013.5 hPa
Clouds: Overcast
Visibility: 10 miles , 16 km
Cloud details: Overcast 6000 ft
2021/01/23 06:53 KFWN 230653Z AUTO VRB05KT 10SM OVC060 M02/M13 A2993 RMK AO2 SLP137 T10171133
 
KSWF - Newburgh/Stewart, New York, USA
Distance from station: 0 45mi, 72km
Updated: 01/23/2021 1:45am
Overcast
Overcast
 Wind from NW
Wind: NW 10 mph , 17 km/h, Gust: 21 mph , 33 km/h
Temperature: 28°F , -2°C
Wind Chill: 19°F , -7°C
Dew Point: 16°F , -9°C
Humidity: 59%
Barometer: 29.91 inHg , 1012.9 hPa
Clouds: Overcast
Visibility: 10 miles , 16 km
Cloud details: Overcast 6000 ft
2021/01/23 06:45 KSWF 230645Z 32009G18KT 10SM OVC060 M02/M09 A2991
KMGJ - Montgomery, New York, USA
Distance from station: NNW 47mi, 75km
Updated: 01/23/2021 1:54am
Overcast
Overcast
 Wind from WNW
Wind: WNW 15 mph , 24 km/h, Gust: 23 mph , 37 km/h
Temperature: 28°F , -2°C
Wind Chill: 16°F , -9°C
Dew Point: 10°F , -12°C
Humidity: 47%
Barometer: 29.91 inHg , 1012.9 hPa
Clouds: Overcast
Visibility: 10 miles , 16 km
Cloud details: Overcast 5500 ft
2021/01/23 06:54 KMGJ 230654Z AUTO 29013G20KT 10SM OVC055 M02/M12 A2991 RMK AO2 SLP132 T10221122
 
KBLM - Belmar/Farmdale, New Jersey, USA
Distance from station: S 47mi, 76km
Updated: 01/23/2021 1:56am
Overcast
Overcast
 Wind from W
Wind: W 15 mph , 24 km/h, Gust: 23 mph , 37 km/h
Temperature: 36°F , 2°C
Wind Chill: 27°F , -3°C
Dew Point: 18°F , -8°C
Humidity: 48%
Barometer: 29.93 inHg , 1013.5 hPa
Clouds: Overcast
Visibility: 10 miles , 16 km
Cloud details: Overcast 6000 ft
2021/01/23 06:56 KBLM 230656Z AUTO 28013G20KT 10SM OVC060 02/M08 A2993 RMK AO2 SLP138 T00171078 FZRANO
KDXR - Danbury, Connecticut, USA
Distance from station: NE 47mi, 76km
Updated: 01/23/2021 1:53am
Clear
Clear
 Wind from W
Wind: W 9 mph , 15 km/h, Gust: 18 mph , 30 km/h
Temperature: 30°F , -1°C
Wind Chill: 22°F , -6°C
Dew Point: 12°F , -11°C
Humidity: 47%
Barometer: 29.89 inHg , 1012.2 hPa
Clouds: Clear
Visibility: 10 miles , 16 km
2021/01/23 06:53 KDXR 230653Z AUTO 28008G16KT 10SM CLR M01/M11 A2989 RMK AO2 SLP124 T10111106
 
KISP - Islip, New York, USA
Distance from station: E 52mi, 83km
Updated: 01/23/2021 1:56am
Overcast
Overcast
 Wind from WNW
Wind: WNW 13 mph , 20 km/h
Temperature: 34°F , 1°C
Wind Chill: 25°F , -4°C
Dew Point: 16°F , -9°C
Humidity: 48%
Barometer: 29.89 inHg , 1012.2 hPa
Clouds: Overcast
Visibility: 10 miles , 16 km
Cloud details: Overcast 6000 ft
2021/01/23 06:56 KISP 230656Z AUTO 30011KT 10SM OVC060 01/M09 A2989 RMK AO2 SLP122 T00111094
KBDR - Bridgeport, Connecticut, USA
Distance from station: ENE 54mi, 87km
Updated: 01/23/2021 1:52am
Overcast
Overcast
 Wind from WNW
Wind: WNW 13 mph , 20 km/h
Temperature: 34°F , 1°C
Wind Chill: 25°F , -4°C
Dew Point: 12°F , -11°C
Humidity: 41%
Barometer: 29.89 inHg , 1012.2 hPa
Clouds: Overcast
Visibility: 10 miles , 16 km
Cloud details: Overcast 6000 ft
2021/01/23 06:52 KBDR 230652Z AUTO 29011KT 10SM OVC060 01/M11 A2989 RMK AO2 SLP122 T00111106
 
KTTN - Trenton, New Jersey, USA
Distance from station: SW 55mi, 88km
Updated: 01/23/2021 1:53am
Overcast
Overcast
 Wind from NW
Wind: NW 17 mph , 28 km/h, Gust: 24 mph , 39 km/h
Temperature: 34°F , 1°C
Wind Chill: 23°F , -5°C
Dew Point: 10°F , -12°C
Humidity: 38%
Barometer: 29.95 inHg , 1014.2 hPa
Clouds: Overcast
Visibility: 10 miles , 16 km
Cloud details: Overcast 6000 ft
2021/01/23 06:53 KTTN 230653Z AUTO 31015G21KT 10SM OVC060 01/M12 A2995 RMK AO2 SLP137 T00061117
KPOU - Poughkeepsie, New York, USA
Distance from station: N 55mi, 89km
Updated: 01/23/2021 1:53am
Mostly cloudy
Mostly cloudy
 Wind from W
Wind: W 14 mph , 22 km/h
Temperature: 30°F , -1°C
Wind Chill: 19°F , -7°C
Dew Point: 12°F , -11°C
Humidity: 47%
Barometer: 29.91 inHg , 1012.9 hPa
Clouds: Mostly cloudy
Visibility: 10 miles , 16 km
Cloud details: Mostly cloudy 6500 ft
2021/01/23 06:53 KPOU 230653Z AUTO 27012KT 10SM BKN065 M01/M11 A2991 RMK AO2 SLP125 T10111106 TSNO
 
KNEL - Lakehurst Nas, New Jersey, USA
Distance from station: SSW 59mi, 95km
Updated: 01/23/2021 2:00am
Overcast
Overcast
 Wind from WNW
Wind: WNW 12 mph , 19 km/h
Temperature: 34°F , 1°C
Wind Chill: 25°F , -4°C
Dew Point: 18°F , -8°C
Humidity: 51%
Barometer: 29.94 inHg , 1013.9 hPa
Clouds: Overcast
Visibility: 10 miles , 16 km
Cloud details: Overcast 6500 ft
2021/01/23 07:00 KNEL 230700Z AUTO 30010KT 10SM OVC065 01/M08 A2994 RMK AO2 SLP138 T00061083 $
KWRI - Wrightst/Mcguire, New Jersey, USA
Distance from station: SSW 63mi, 102km
Updated: 01/20/2021 1:56pm
NOT Current
Partly cloudy
Partly cloudy
 Wind from NW
Wind: NW 18 mph , 30 km/h, Gust: 25 mph , 41 km/h
Temperature: 39°F , 4°C
Wind Chill: 30°F , -1°C
Dew Point: 16°F , -9°C
Humidity: 39%
Barometer: 29.93 inHg , 1013.5 hPa
Clouds: Partly cloudy
Visibility: 10 miles , 16 km
Cloud details: Partly cloudy 5500 ft
2021/01/20 18:56 KWRI 201856Z 32016G22KT 10SM SCT055 04/M09 A2993 RMK AO2A PK WND 34030/35 SLP136 T00411086
 
KHWV - Shirley, New York, USA
Distance from station: E 64mi, 103km
Updated: 01/23/2021 1:56am
Partly cloudy
Partly cloudy
 Wind from NW
Wind: NW 10 mph , 17 km/h, Gust: 18 mph , 30 km/h
Temperature: 34°F , 1°C
Wind Chill: 26°F , -3°C
Dew Point: 14°F , -10°C
Humidity: 44%
Barometer: 29.90 inHg , 1012.5 hPa
Clouds: Partly cloudy
Visibility: 10 miles , 16 km
Cloud details: Partly cloudy 6000 ft
2021/01/23 06:56 KHWV 230656Z AUTO 31009G16KT 10SM SCT060 01/M10 A2990 RMK AO2 SLP124 T00111100
KMJX - Toms River, New Jersey, USA
Distance from station: S 64mi, 104km
Updated: 01/23/2021 1:56am
Overcast
Overcast
 Wind from NW
Wind: NW 9 mph , 15 km/h
Temperature: 34°F , 1°C
Wind Chill: 27°F , -3°C
Dew Point: 21°F , -6°C
Humidity: 60%
Barometer: 29.95 inHg , 1014.2 hPa
Clouds: Overcast
Visibility: 10 miles , 16 km
Cloud details: Overcast 6500 ft
2021/01/23 06:56 KMJX 230656Z AUTO 31008KT 10SM OVC065 01/M06 A2995 RMK AO2 SLP147 T00061061 FZRANO
 
KDYL - Doylestown, Pennsylvania, USA
Distance from station: SW 65mi, 104km
Updated: 01/23/2021 1:54am
Overcast
Overcast
 Wind from NW
Wind: NW 14 mph , 22 km/h, Gust: 26 mph , 43 km/h
Temperature: 34°F , 1°C
Wind Chill: 25°F , -4°C
Dew Point: 10°F , -12°C
Humidity: 38%
Barometer: 29.95 inHg , 1014.2 hPa
Clouds: Overcast
Visibility: 10 miles , 16 km
Cloud details: Overcast 6000 ft
2021/01/23 06:54 KDYL 230654Z AUTO 32012G23KT 10SM OVC060 01/M12 A2995 RMK AO2 SLP147 T00061122
KOXC - Oxford/Waterbury, Connecticut, USA
Distance from station: NE 65mi, 105km
Updated: 01/23/2021 1:51am
Mostly cloudy
Mostly cloudy
 Wind from NW
Wind: NW 7 mph , 11 km/h
Temperature: 28°F , -2°C
Wind Chill: 21°F , -6°C
Dew Point: 16°F , -9°C
Humidity: 59%
Barometer: 29.85 inHg , 1010.8 hPa
Clouds: Mostly cloudy
Visibility: 10 miles , 16 km
Cloud details: Few Clouds 4700 ft
Mostly cloudy 6000 ft
2021/01/23 06:51 KOXC 230651Z AUTO 32006KT 10SM FEW047 BKN060 M02/M09 A2985 RMK AO2 SLP128 T10171094 FZRANO
 
KMSV - Monticello, New York, USA
Distance from station: NNW 69mi, 111km
Updated: 01/23/2021 1:56am
Overcast
Overcast
 Wind from WNW
Wind: WNW 12 mph , 19 km/h, Gust: 18 mph , 30 km/h
Temperature: 21°F , -6°C
Wind Chill: 9°F , -13°C
Dew Point: 10°F , -12°C
Humidity: 63%
Barometer: 29.88 inHg , 1011.9 hPa
Clouds: Overcast
Visibility: 10 miles , 16 km
Cloud details: Partly cloudy 3900 ft
Overcast 6000 ft
2021/01/23 06:56 KMSV 230656Z AUTO 29010G16KT 10SM SCT039 OVC060 M06/M12 A2988 RMK AO2 SLP133 T10561122 FZRANO
KHVN - New Haven/Tweed, Connecticut, USA
Distance from station: ENE 70mi, 112km
Updated: 01/23/2021 1:53am
Mostly cloudy
Mostly cloudy
 Wind from NW
Wind: NW 7 mph , 11 km/h, Gust: 16 mph , 26 km/h
Temperature: 36°F , 2°C
Wind Chill: 30°F , -1°C
Dew Point: 18°F , -8°C
Humidity: 48%
Barometer: 29.88 inHg , 1011.9 hPa
Clouds: Mostly cloudy
Visibility: 10 miles , 16 km
Cloud details: Mostly cloudy 6500 ft
2021/01/23 06:53 KHVN 230653Z AUTO 31006G14KT 10SM BKN065 02/M08 A2988 RMK AO2 SLP116 T00221083
 
KMPO - Mt. Pocono, Pennsylvania, USA
Distance from station: WNW 70mi, 113km
Updated: 01/23/2021 1:53am
Overcast
Overcast
 Wind from WNW
Wind: WNW 14 mph , 22 km/h, Gust: 22 mph , 35 km/h
Temperature: 19°F , -7°C
Wind Chill: 5°F , -15°C
Dew Point: 10°F , -12°C
Humidity: 68%
Barometer: 29.86 inHg , 1011.2 hPa
Clouds: Overcast
Visibility: 10 miles , 16 km
Cloud details: Partly cloudy 2800 ft
Overcast 3500 ft
2021/01/23 06:53 KMPO 230653Z AUTO 29012G19KT 10SM SCT028 OVC035 M07/M12 A2986 RMK AO2 SLP134 T10671122 $
KPNE - Philadelphia/Ne, Pennsylvania, USA
Distance from station: SW 72mi, 116km
Updated: 01/23/2021 1:54am
Overcast
Overcast
 Wind from NW
Wind: NW 13 mph , 20 km/h
Temperature: 36°F , 2°C
Wind Chill: 27°F , -3°C
Dew Point: 16°F , -9°C
Humidity: 44%
Barometer: 29.98 inHg , 1015.2 hPa
Clouds: Overcast
Visibility: 10 miles , 16 km
Cloud details: Overcast 6000 ft
2021/01/23 06:54 KPNE 230654Z AUTO 32011KT 10SM OVC060 02/M09 A2998 RMK AO2 SLP153 T00171094
 
KABE - Allentown, Pennsylvania, USA
Distance from station: W 73mi, 117km
Updated: 01/23/2021 1:51am
Overcast
Overcast
 Wind from NW
Wind: NW 17 mph , 28 km/h, Gust: 26 mph , 43 km/h
Temperature: 30°F , -1°C
Wind Chill: 18°F , -8°C
Dew Point: 9°F , -13°C
Humidity: 40%
Barometer: 29.97 inHg , 1014.9 hPa
Clouds: Overcast
Visibility: 10 miles , 16 km
Cloud details: Overcast 5500 ft
2021/01/23 06:51 KABE 230651Z AUTO 31015G23KT 10SM OVC055 M01/M13 A2997 RMK AO2 PK WND 31027/0620 SLP152 T10111128
KUKT - Quakertown Arp, Pennsylvania, USA
Distance from station: WSW 74mi, 119km
Updated: 01/23/2021 1:55am
Overcast
Overcast
 Wind from WNW
Wind: WNW 9 mph , 15 km/h, Gust: 21 mph , 33 km/h
Temperature: 30°F , -1°C
Wind Chill: 22°F , -6°C
Dew Point: 10°F , -12°C
Humidity: 43%
Barometer: 29.97 inHg , 1014.9 hPa
Clouds: Overcast
Visibility: 10 miles , 16 km
Cloud details: Overcast 5500 ft
2021/01/23 06:55 KUKT 230655Z AUTO 29008G18KT 260V320 10SM OVC055 M01/M12 A2997 RMK A01
 
KVAY - Mount Holly, New Jersey, USA
Distance from station: SSW 75mi, 120km
Updated: 01/23/2021 1:54am
Overcast
Overcast
 Wind from NW
Wind: NW 8 mph , 13 km/h
Temperature: 36°F , 2°C
Wind Chill: 30°F , -1°C
Dew Point: 19°F , -7°C
Humidity: 52%
Barometer: 29.97 inHg , 1014.9 hPa
Clouds: Overcast
Visibility: 10 miles , 16 km
Cloud details: Overcast 6500 ft
2021/01/23 06:54 KVAY 230654Z AUTO 32007KT 10SM OVC065 02/M07 A2997 RMK AO2 SLP148 T00171072
KXLL - Allentown Queen, Pennsylvania, USA
Distance from station: WSW 76mi, 122km
Updated: 01/23/2021 1:55am
Overcast
Overcast
 Wind from NW
Wind: NW 13 mph , 20 km/h, Gust: 21 mph , 33 km/h
Temperature: 32°F , 0°C
Wind Chill: 22°F , -6°C
Dew Point: 12°F , -11°C
Humidity: 44%
Barometer: 29.99 inHg , 1015.6 hPa
Clouds: Overcast
Visibility: 10 miles , 16 km
Cloud details: Overcast 6000 ft
2021/01/23 06:55 KXLL 230655Z AUTO 31011G18KT 10SM OVC060 00/M11 A2999 RMK AO2
 
KFOK - Westhampton Beac, New York, USA
Distance from station: E 77mi, 124km
Updated: 01/23/2021 1:53am
Mostly cloudy
Mostly cloudy
 Wind from W
Wind: W 9 mph , 15 km/h
Temperature: 30°F , -1°C
Wind Chill: 22°F , -6°C
Dew Point: 19°F , -7°C
Humidity: 64%
Barometer: 29.89 inHg , 1012.2 hPa
Clouds: Mostly cloudy
Visibility: 10 miles , 16 km
Cloud details: Mostly cloudy 5500 ft
2021/01/23 06:53 KFOK 230653Z AUTO 28008KT 10SM BKN055 M01/M07 A2989 RMK AO2 SLP122 T10061072
KLOM - Philly Wings F, Pennsylvania, USA
Distance from station: SW 79mi, 128km
Updated: 01/23/2021 1:55am
Overcast
Overcast
 Wind from NW
Wind: NW 10 mph , 17 km/h, Gust: 17 mph , 28 km/h
Temperature: 32°F , 0°C
Wind Chill: 24°F , -4°C
Dew Point: 14°F , -10°C
Humidity: 47%
Barometer: 29.97 inHg , 1014.9 hPa
Clouds: Overcast
Visibility: 10 miles , 16 km
Cloud details: Overcast 6000 ft
2021/01/23 06:55 KLOM 230655Z AUTO 32009G15KT 10SM OVC060 00/M10 A2997 RMK AO2 T00021103
 
KMMK - Meriden, Connecticut, USA
Distance from station: NE 80mi, 128km
Updated: 01/23/2021 1:53am
Mostly cloudy
Mostly cloudy
 Wind from NW
Wind: NW 3 mph , 6 km/h
Temperature: 30°F , -1°C
Dew Point: 16°F , -9°C
Humidity: 55%
Barometer: 29.87 inHg , 1011.5 hPa
Clouds: Mostly cloudy
Visibility: 10 miles , 16 km
Cloud details: Few Clouds 4900 ft
Mostly cloudy 6500 ft
2021/01/23 06:53 KMMK 230653Z AUTO 31003KT 10SM FEW049 BKN065 M01/M09 A2987 RMK AO2 SLP116 T10061094
KPTW - Pottstown, Pennsylvania, USA
Distance from station: WSW 88mi, 141km
Updated: 01/23/2021 1:54am
Overcast
Overcast
 Wind from NW
Wind: NW 8 mph , 13 km/h, Gust: 17 mph , 28 km/h
Temperature: 30°F , -1°C
Wind Chill: 22°F , -6°C
Dew Point: 12°F , -11°C
Humidity: 47%
Barometer: 29.99 inHg , 1015.6 hPa
Clouds: Overcast
Visibility: 10 miles , 16 km
Cloud details: Overcast 6000 ft
2021/01/23 06:54 KPTW 230654Z AUTO 32007G15KT 10SM OVC060 M01/M11 A2999 RMK AO2 SLP155 T10061106
 
KSNC - Chester, Connecticut, USA
Distance from station: ENE 90mi, 146km
Updated: 01/23/2021 1:55am
Partly cloudy
Partly cloudy
 Wind from WNW
Wind: WNW 5 mph , 7 km/h
Temperature: 30°F , -1°C
Wind Chill: 25°F , -4°C
Dew Point: 16°F , -9°C
Humidity: 55%
Barometer: 29.85 inHg , 1010.8 hPa
Clouds: Partly cloudy
Visibility: 10 miles , 16 km
Cloud details: Partly cloudy 6000 ft
2021/01/23 06:55 KSNC 230655Z AUTO 30004KT 10SM SCT060 M01/M09 A2985 RMK AO2
KPHL - Philadelphia, Pennsylvania, USA
Distance from station: SW 91mi, 146km
Updated: 01/23/2021 1:54am
Mostly cloudy
Mostly cloudy
 Wind from NW
Wind: NW 14 mph , 22 km/h
Temperature: 36°F , 2°C
Wind Chill: 27°F , -3°C
Dew Point: 16°F , -9°C
Humidity: 44%
Barometer: 29.98 inHg , 1015.2 hPa
Clouds: Mostly cloudy
Visibility: 10 miles , 16 km
Cloud details: Mostly cloudy 6500 ft
2021/01/23 06:54 KPHL 230654Z 32012KT 10SM BKN065 02/M09 A2998 RMK AO2 SLP153 T00171089
 
KAVP - Avoca/Wilkes B., Pennsylvania, USA
Distance from station: WNW 91mi, 147km
Updated: 01/23/2021 1:54am
Overcast
Overcast
 Wind from NW
Wind: NW 12 mph , 19 km/h
Temperature: 27°F , -3°C
Wind Chill: 16°F , -9°C
Dew Point: 10°F , -12°C
Humidity: 50%
Barometer: 29.94 inHg , 1013.9 hPa
Clouds: Overcast
Visibility: 10 miles , 16 km
Cloud details: Overcast 5000 ft
2021/01/23 06:54 KAVP 230654Z 32010KT 10SM OVC050 M03/M12 A2994 RMK AO2 SLP147 T10331117
KHFD - Hartford/Brainar, Connecticut, USA
Distance from station: NE 96mi, 155km
Updated: 01/23/2021 1:53am
Few Clouds
Few Clouds
 Wind from WNW
Wind: WNW 14 mph , 22 km/h, Gust: 24 mph , 39 km/h
Temperature: 34°F , 1°C
Wind Chill: 25°F , -4°C
Dew Point: 12°F , -11°C
Humidity: 41%
Barometer: 29.87 inHg , 1011.5 hPa
Clouds: Few Clouds
Visibility: 10 miles , 16 km
Cloud details: Few Clouds 7000 ft
2021/01/23 06:53 KHFD 230653Z AUTO 30012G21KT 10SM FEW070 01/M11 A2987 RMK AO2 SLP114 T00061111
 
KHTO - East Hampton, New York, USA
Distance from station: E 96mi, 155km
Updated: 01/23/2021 1:55am
Overcast
Overcast
 Wind from NW
Wind: NW 10 mph , 17 km/h, Gust: 16 mph , 26 km/h
Temperature: 34°F , 1°C
Wind Chill: 26°F , -3°C
Dew Point: 16°F , -9°C
Humidity: 48%
Barometer: 29.86 inHg , 1011.2 hPa
Clouds: Overcast
Visibility: 10 miles , 16 km
Cloud details: Overcast 5500 ft
2021/01/23 06:55 KHTO 230655Z AUTO 31009G14KT 10SM OVC055 01/M09 A2986 RMK AO2 T00121095
KACY - Atlantic City, New Jersey, USA
Distance from station: SSW 99mi, 160km
Updated: 01/23/2021 1:54am
Overcast
Overcast
 Wind from WNW
Wind: WNW 7 mph , 11 km/h
Temperature: 34°F , 1°C
Wind Chill: 28°F , -2°C
Dew Point: 21°F , -6°C
Humidity: 60%
Barometer: 29.96 inHg , 1014.6 hPa
Clouds: Overcast
Visibility: 10 miles , 16 km
Cloud details: Overcast 6000 ft
2021/01/23 06:54 KACY 230654Z 29006KT 10SM OVC060 01/M06 A2996 RMK AO2 SLP145 T00111056